sensor_id;sensor_type;location;lat;lon;timestamp;temperature;humidity
20534;DHT22;12929;56.822;26.056;2024-03-22T00:01:50;4.30;99.90
20534;DHT22;12929;56.822;26.056;2024-03-22T00:04:17;4.30;99.90
20534;DHT22;12929;56.822;26.056;2024-03-22T00:06:45;4.30;99.90
20534;DHT22;12929;56.822;26.056;2024-03-22T00:09:12;4.30;99.90
20534;DHT22;12929;56.822;26.056;2024-03-22T00:11:42;4.30;99.90
20534;DHT22;12929;56.822;26.056;2024-03-22T00:14:09;4.30;99.90
20534;DHT22;12929;56.822;26.056;2024-03-22T00:16:36;4.30;99.90
20534;DHT22;12929;56.822;26.056;2024-03-22T00:19:04;4.30;99.90
20534;DHT22;12929;56.822;26.056;2024-03-22T00:21:30;4.30;99.90
20534;DHT22;12929;56.822;26.056;2024-03-22T00:23:57;4.30;99.90
20534;DHT22;12929;56.822;26.056;2024-03-22T00:26:23;4.30;99.90
20534;DHT22;12929;56.822;26.056;2024-03-22T00:28:50;4.30;99.90
20534;DHT22;12929;56.822;26.056;2024-03-22T00:31:17;4.30;99.90
20534;DHT22;12929;56.822;26.056;2024-03-22T00:33:43;4.30;99.90
20534;DHT22;12929;56.822;26.056;2024-03-22T00:36:10;4.30;99.90
20534;DHT22;12929;56.822;26.056;2024-03-22T00:38:36;4.30;99.90
20534;DHT22;12929;56.822;26.056;2024-03-22T00:41:03;4.30;99.90
20534;DHT22;12929;56.822;26.056;2024-03-22T00:43:29;4.40;99.90
20534;DHT22;12929;56.822;26.056;2024-03-22T00:45:55;4.40;99.90
20534;DHT22;12929;56.822;26.056;2024-03-22T00:48:22;4.40;99.90
20534;DHT22;12929;56.822;26.056;2024-03-22T00:50:48;4.30;99.90
20534;DHT22;12929;56.822;26.056;2024-03-22T00:53:14;4.30;99.90
20534;DHT22;12929;56.822;26.056;2024-03-22T00:55:41;4.20;99.90
20534;DHT22;12929;56.822;26.056;2024-03-22T00:58:07;4.30;99.90
20534;DHT22;12929;56.822;26.056;2024-03-22T01:00:34;4.20;99.90
20534;DHT22;12929;56.822;26.056;2024-03-22T01:03:00;4.20;99.90
20534;DHT22;12929;56.822;26.056;2024-03-22T01:05:26;4.20;99.90
20534;DHT22;12929;56.822;26.056;2024-03-22T01:07:53;4.20;99.90
20534;DHT22;12929;56.822;26.056;2024-03-22T01:10:19;4.20;99.90
20534;DHT22;12929;56.822;26.056;2024-03-22T01:12:45;4.20;99.90
20534;DHT22;12929;56.822;26.056;2024-03-22T01:15:12;4.20;99.90
20534;DHT22;12929;56.822;26.056;2024-03-22T01:17:38;4.20;99.90
20534;DHT22;12929;56.822;26.056;2024-03-22T01:20:05;4.20;99.90
20534;DHT22;12929;56.822;26.056;2024-03-22T01:22:31;4.20;99.90
20534;DHT22;12929;56.822;26.056;2024-03-22T01:24:58;4.20;99.90
20534;DHT22;12929;56.822;26.056;2024-03-22T01:27:24;4.20;99.90
20534;DHT22;12929;56.822;26.056;2024-03-22T01:29:50;4.20;99.90
20534;DHT22;12929;56.822;26.056;2024-03-22T01:32:17;4.20;99.90
20534;DHT22;12929;56.822;26.056;2024-03-22T01:34:43;4.10;99.90
20534;DHT22;12929;56.822;26.056;2024-03-22T01:37:09;4.10;99.90
20534;DHT22;12929;56.822;26.056;2024-03-22T01:39:36;4.20;99.90
20534;DHT22;12929;56.822;26.056;2024-03-22T01:42:02;4.10;99.90
20534;DHT22;12929;56.822;26.056;2024-03-22T01:44:29;4.00;99.90
20534;DHT22;12929;56.822;26.056;2024-03-22T01:46:57;4.00;99.90
20534;DHT22;12929;56.822;26.056;2024-03-22T01:49:25;4.00;99.90
20534;DHT22;12929;56.822;26.056;2024-03-22T01:51:52;4.10;99.90
20534;DHT22;12929;56.822;26.056;2024-03-22T01:54:20;4.00;99.90
20534;DHT22;12929;56.822;26.056;2024-03-22T01:56:47;3.90;99.90
20534;DHT22;12929;56.822;26.056;2024-03-22T01:59:13;3.90;99.90
20534;DHT22;12929;56.822;26.056;2024-03-22T02:01:40;4.00;99.90
20534;DHT22;12929;56.822;26.056;2024-03-22T02:04:06;4.00;99.90
20534;DHT22;12929;56.822;26.056;2024-03-22T02:06:33;4.00;99.90
20534;DHT22;12929;56.822;26.056;2024-03-22T02:08:59;4.00;99.90
20534;DHT22;12929;56.822;26.056;2024-03-22T02:11:26;4.00;99.90
20534;DHT22;12929;56.822;26.056;2024-03-22T02:13:53;4.00;99.90
20534;DHT22;12929;56.822;26.056;2024-03-22T02:16:19;4.00;99.90
20534;DHT22;12929;56.822;26.056;2024-03-22T02:18:45;4.00;99.90
20534;DHT22;12929;56.822;26.056;2024-03-22T02:21:12;4.10;99.90
20534;DHT22;12929;56.822;26.056;2024-03-22T02:23:40;4.10;99.90
20534;DHT22;12929;56.822;26.056;2024-03-22T02:26:07;4.00;99.90
20534;DHT22;12929;56.822;26.056;2024-03-22T02:28:34;4.00;99.90
20534;DHT22;12929;56.822;26.056;2024-03-22T02:31:03;4.00;99.90
20534;DHT22;12929;56.822;26.056;2024-03-22T02:33:29;4.00;99.90
20534;DHT22;12929;56.822;26.056;2024-03-22T02:35:56;3.90;99.90
20534;DHT22;12929;56.822;26.056;2024-03-22T02:38:23;4.00;99.90
20534;DHT22;12929;56.822;26.056;2024-03-22T02:40:50;3.90;99.90
20534;DHT22;12929;56.822;26.056;2024-03-22T02:43:17;3.90;99.90
20534;DHT22;12929;56.822;26.056;2024-03-22T02:45:47;3.90;99.90
20534;DHT22;12929;56.822;26.056;2024-03-22T02:48:14;3.90;99.90
20534;DHT22;12929;56.822;26.056;2024-03-22T02:50:41;3.90;99.90
20534;DHT22;12929;56.822;26.056;2024-03-22T02:53:07;3.90;99.90
20534;DHT22;12929;56.822;26.056;2024-03-22T02:55:38;4.00;99.90
20534;DHT22;12929;56.822;26.056;2024-03-22T02:58:05;4.00;99.90
20534;DHT22;12929;56.822;26.056;2024-03-22T03:00:36;3.90;99.90
20534;DHT22;12929;56.822;26.056;2024-03-22T03:03:04;3.90;99.90
20534;DHT22;12929;56.822;26.056;2024-03-22T03:05:30;3.90;99.90
20534;DHT22;12929;56.822;26.056;2024-03-22T03:07:56;4.00;99.90
20534;DHT22;12929;56.822;26.056;2024-03-22T03:10:23;3.90;99.90
20534;DHT22;12929;56.822;26.056;2024-03-22T03:12:49;3.90;99.90
20534;DHT22;12929;56.822;26.056;2024-03-22T03:15:17;3.90;99.90
20534;DHT22;12929;56.822;26.056;2024-03-22T03:17:44;3.90;99.90
20534;DHT22;12929;56.822;26.056;2024-03-22T03:20:10;3.90;99.90
20534;DHT22;12929;56.822;26.056;2024-03-22T03:22:40;3.90;99.90
20534;DHT22;12929;56.822;26.056;2024-03-22T03:25:06;3.90;99.90
20534;DHT22;12929;56.822;26.056;2024-03-22T03:27:33;3.90;99.90
20534;DHT22;12929;56.822;26.056;2024-03-22T03:30:00;3.90;99.90
20534;DHT22;12929;56.822;26.056;2024-03-22T03:32:27;3.80;99.90
20534;DHT22;12929;56.822;26.056;2024-03-22T03:34:54;3.90;99.90
20534;DHT22;12929;56.822;26.056;2024-03-22T03:37:20;3.90;99.90
20534;DHT22;12929;56.822;26.056;2024-03-22T03:39:46;3.90;99.90
20534;DHT22;12929;56.822;26.056;2024-03-22T03:42:13;3.90;99.90
20534;DHT22;12929;56.822;26.056;2024-03-22T03:44:39;3.90;99.90
20534;DHT22;12929;56.822;26.056;2024-03-22T03:47:07;3.90;99.90
20534;DHT22;12929;56.822;26.056;2024-03-22T03:49:34;3.80;99.90
20534;DHT22;12929;56.822;26.056;2024-03-22T03:52:00;3.90;99.90
20534;DHT22;12929;56.822;26.056;2024-03-22T03:54:27;3.90;99.90
20534;DHT22;12929;56.822;26.056;2024-03-22T03:56:54;3.90;99.90
20534;DHT22;12929;56.822;26.056;2024-03-22T03:59:20;3.90;99.90
20534;DHT22;12929;56.822;26.056;2024-03-22T04:01:47;3.90;99.90
20534;DHT22;12929;56.822;26.056;2024-03-22T04:04:13;3.80;99.90
20534;DHT22;12929;56.822;26.056;2024-03-22T04:06:40;3.90;99.90
20534;DHT22;12929;56.822;26.056;2024-03-22T04:09:06;3.90;99.90
20534;DHT22;12929;56.822;26.056;2024-03-22T04:11:33;4.00;99.90
20534;DHT22;12929;56.822;26.056;2024-03-22T04:13:59;4.00;99.90
20534;DHT22;12929;56.822;26.056;2024-03-22T04:16:25;4.00;99.90
20534;DHT22;12929;56.822;26.056;2024-03-22T04:18:52;4.00;99.90
20534;DHT22;12929;56.822;26.056;2024-03-22T04:21:19;3.90;99.90
20534;DHT22;12929;56.822;26.056;2024-03-22T04:23:45;3.90;99.90
20534;DHT22;12929;56.822;26.056;2024-03-22T04:26:11;3.90;99.90
20534;DHT22;12929;56.822;26.056;2024-03-22T04:28:38;3.90;99.90
20534;DHT22;12929;56.822;26.056;2024-03-22T04:31:06;3.80;99.90
20534;DHT22;12929;56.822;26.056;2024-03-22T04:33:36;3.80;99.90
20534;DHT22;12929;56.822;26.056;2024-03-22T04:36:03;3.80;99.90
20534;DHT22;12929;56.822;26.056;2024-03-22T04:38:30;3.90;99.90
20534;DHT22;12929;56.822;26.056;2024-03-22T04:40:57;3.90;99.90
20534;DHT22;12929;56.822;26.056;2024-03-22T04:43:24;3.80;99.90
20534;DHT22;12929;56.822;26.056;2024-03-22T04:45:51;3.80;99.90
20534;DHT22;12929;56.822;26.056;2024-03-22T04:48:22;3.80;99.90
20534;DHT22;12929;56.822;26.056;2024-03-22T04:50:50;3.80;99.90
20534;DHT22;12929;56.822;26.056;2024-03-22T04:53:18;3.80;99.90
20534;DHT22;12929;56.822;26.056;2024-03-22T04:55:44;3.90;99.90
20534;DHT22;12929;56.822;26.056;2024-03-22T04:58:17;3.80;99.90
20534;DHT22;12929;56.822;26.056;2024-03-22T05:00:44;3.80;99.90
20534;DHT22;12929;56.822;26.056;2024-03-22T05:03:11;3.80;99.90
20534;DHT22;12929;56.822;26.056;2024-03-22T05:05:38;3.70;99.90
20534;DHT22;12929;56.822;26.056;2024-03-22T05:08:05;3.80;99.90
20534;DHT22;12929;56.822;26.056;2024-03-22T05:10:32;3.70;99.90
20534;DHT22;12929;56.822;26.056;2024-03-22T05:12:59;3.80;99.90
20534;DHT22;12929;56.822;26.056;2024-03-22T05:15:26;3.80;99.90
20534;DHT22;12929;56.822;26.056;2024-03-22T05:17:53;3.80;99.90
20534;DHT22;12929;56.822;26.056;2024-03-22T05:20:20;3.80;99.90
20534;DHT22;12929;56.822;26.056;2024-03-22T05:22:47;3.70;99.90
20534;DHT22;12929;56.822;26.056;2024-03-22T05:25:14;3.70;99.90
20534;DHT22;12929;56.822;26.056;2024-03-22T05:27:41;3.80;99.90
20534;DHT22;12929;56.822;26.056;2024-03-22T05:30:12;3.70;99.90
20534;DHT22;12929;56.822;26.056;2024-03-22T05:32:42;3.70;99.90
20534;DHT22;12929;56.822;26.056;2024-03-22T05:35:09;3.60;99.90
20534;DHT22;12929;56.822;26.056;2024-03-22T05:37:35;3.60;99.90
20534;DHT22;12929;56.822;26.056;2024-03-22T05:40:02;3.50;99.90
20534;DHT22;12929;56.822;26.056;2024-03-22T05:42:30;3.60;99.90
20534;DHT22;12929;56.822;26.056;2024-03-22T05:44:57;3.60;99.90
20534;DHT22;12929;56.822;26.056;2024-03-22T05:47:23;3.70;99.90
20534;DHT22;12929;56.822;26.056;2024-03-22T05:49:49;3.60;99.90
20534;DHT22;12929;56.822;26.056;2024-03-22T05:52:16;3.70;99.90
20534;DHT22;12929;56.822;26.056;2024-03-22T05:54:42;3.70;99.90
20534;DHT22;12929;56.822;26.056;2024-03-22T05:57:09;3.70;99.90
20534;DHT22;12929;56.822;26.056;2024-03-22T05:59:35;3.70;99.90
20534;DHT22;12929;56.822;26.056;2024-03-22T06:02:02;3.70;99.90
20534;DHT22;12929;56.822;26.056;2024-03-22T06:04:28;3.70;99.90
20534;DHT22;12929;56.822;26.056;2024-03-22T06:06:54;3.60;99.90
20534;DHT22;12929;56.822;26.056;2024-03-22T06:09:21;3.60;99.90
20534;DHT22;12929;56.822;26.056;2024-03-22T06:12:00;3.60;99.90
20534;DHT22;12929;56.822;26.056;2024-03-22T06:14:28;3.60;99.90
20534;DHT22;12929;56.822;26.056;2024-03-22T06:16:55;3.70;99.90
20534;DHT22;12929;56.822;26.056;2024-03-22T06:19:21;3.70;99.90
20534;DHT22;12929;56.822;26.056;2024-03-22T06:21:48;3.70;99.90
20534;DHT22;12929;56.822;26.056;2024-03-22T06:24:14;3.60;99.90
20534;DHT22;12929;56.822;26.056;2024-03-22T06:26:40;3.70;99.90
20534;DHT22;12929;56.822;26.056;2024-03-22T06:29:07;3.70;99.90
20534;DHT22;12929;56.822;26.056;2024-03-22T06:31:33;3.70;99.90
20534;DHT22;12929;56.822;26.056;2024-03-22T06:33:59;3.70;99.90
20534;DHT22;12929;56.822;26.056;2024-03-22T06:36:29;3.60;99.90
20534;DHT22;12929;56.822;26.056;2024-03-22T06:38:55;3.70;99.90
20534;DHT22;12929;56.822;26.056;2024-03-22T06:41:22;3.70;99.90
20534;DHT22;12929;56.822;26.056;2024-03-22T06:43:49;3.60;99.90
20534;DHT22;12929;56.822;26.056;2024-03-22T06:46:15;3.70;99.90
20534;DHT22;12929;56.822;26.056;2024-03-22T06:48:41;3.70;99.90
20534;DHT22;12929;56.822;26.056;2024-03-22T06:51:07;3.70;99.90
20534;DHT22;12929;56.822;26.056;2024-03-22T06:53:34;3.60;99.90
20534;DHT22;12929;56.822;26.056;2024-03-22T06:56:00;3.60;99.90
20534;DHT22;12929;56.822;26.056;2024-03-22T06:58:27;3.60;99.90
20534;DHT22;12929;56.822;26.056;2024-03-22T07:00:54;3.60;99.90
20534;DHT22;12929;56.822;26.056;2024-03-22T07:03:21;3.60;99.90
20534;DHT22;12929;56.822;26.056;2024-03-22T07:05:47;3.70;99.90
20534;DHT22;12929;56.822;26.056;2024-03-22T07:08:14;3.60;99.90
20534;DHT22;12929;56.822;26.056;2024-03-22T07:10:40;3.60;99.90
20534;DHT22;12929;56.822;26.056;2024-03-22T07:13:07;3.60;99.90
20534;DHT22;12929;56.822;26.056;2024-03-22T07:15:33;3.50;99.90
20534;DHT22;12929;56.822;26.056;2024-03-22T07:18:00;3.60;99.90
20534;DHT22;12929;56.822;26.056;2024-03-22T07:20:26;3.60;99.90
20534;DHT22;12929;56.822;26.056;2024-03-22T07:22:53;3.50;99.90
20534;DHT22;12929;56.822;26.056;2024-03-22T07:25:19;3.50;99.90
20534;DHT22;12929;56.822;26.056;2024-03-22T07:27:45;3.50;99.90
20534;DHT22;12929;56.822;26.056;2024-03-22T07:30:13;3.50;99.90
20534;DHT22;12929;56.822;26.056;2024-03-22T07:32:40;3.60;99.90
20534;DHT22;12929;56.822;26.056;2024-03-22T07:35:06;3.60;99.90
20534;DHT22;12929;56.822;26.056;2024-03-22T07:37:35;3.60;99.90
20534;DHT22;12929;56.822;26.056;2024-03-22T07:40:02;3.60;99.90
20534;DHT22;12929;56.822;26.056;2024-03-22T07:42:29;3.60;99.90
20534;DHT22;12929;56.822;26.056;2024-03-22T07:44:56;3.60;99.90
20534;DHT22;12929;56.822;26.056;2024-03-22T07:47:22;3.50;99.90
20534;DHT22;12929;56.822;26.056;2024-03-22T07:49:50;3.60;99.90
20534;DHT22;12929;56.822;26.056;2024-03-22T07:52:16;3.50;99.90
20534;DHT22;12929;56.822;26.056;2024-03-22T07:54:43;3.60;99.90
20534;DHT22;12929;56.822;26.056;2024-03-22T07:57:09;3.60;99.90
20534;DHT22;12929;56.822;26.056;2024-03-22T07:59:36;3.50;99.90
20534;DHT22;12929;56.822;26.056;2024-03-22T08:02:04;3.40;99.90
20534;DHT22;12929;56.822;26.056;2024-03-22T08:04:30;3.40;99.90
20534;DHT22;12929;56.822;26.056;2024-03-22T08:06:57;3.30;99.90
20534;DHT22;12929;56.822;26.056;2024-03-22T08:09:24;3.40;99.90
20534;DHT22;12929;56.822;26.056;2024-03-22T08:11:50;3.30;99.90
20534;DHT22;12929;56.822;26.056;2024-03-22T08:14:16;3.40;99.90
20534;DHT22;12929;56.822;26.056;2024-03-22T08:16:43;3.30;99.90
20534;DHT22;12929;56.822;26.056;2024-03-22T08:19:09;3.30;99.90
20534;DHT22;12929;56.822;26.056;2024-03-22T08:21:36;3.30;99.90
20534;DHT22;12929;56.822;26.056;2024-03-22T08:24:03;3.40;99.90
20534;DHT22;12929;56.822;26.056;2024-03-22T08:26:29;3.40;99.90
20534;DHT22;12929;56.822;26.056;2024-03-22T08:28:56;3.50;99.90
20534;DHT22;12929;56.822;26.056;2024-03-22T08:31:22;3.60;99.90
20534;DHT22;12929;56.822;26.056;2024-03-22T08:33:52;3.60;99.90
20534;DHT22;12929;56.822;26.056;2024-03-22T08:36:18;3.70;99.90
20534;DHT22;12929;56.822;26.056;2024-03-22T08:38:45;3.70;99.90
20534;DHT22;12929;56.822;26.056;2024-03-22T08:41:11;3.70;99.90
20534;DHT22;12929;56.822;26.056;2024-03-22T08:43:38;3.70;99.90
20534;DHT22;12929;56.822;26.056;2024-03-22T08:46:04;3.70;99.90
20534;DHT22;12929;56.822;26.056;2024-03-22T08:48:31;3.70;99.90
20534;DHT22;12929;56.822;26.056;2024-03-22T08:50:57;3.70;99.90
20534;DHT22;12929;56.822;26.056;2024-03-22T08:53:24;3.70;99.90
20534;DHT22;12929;56.822;26.056;2024-03-22T08:55:51;3.70;99.90
20534;DHT22;12929;56.822;26.056;2024-03-22T08:58:17;3.70;99.90
20534;DHT22;12929;56.822;26.056;2024-03-22T09:00:47;3.60;99.90
20534;DHT22;12929;56.822;26.056;2024-03-22T09:03:13;3.70;99.90
20534;DHT22;12929;56.822;26.056;2024-03-22T09:05:41;3.70;99.90
20534;DHT22;12929;56.822;26.056;2024-03-22T09:08:07;3.60;99.90
20534;DHT22;12929;56.822;26.056;2024-03-22T09:10:34;3.60;99.90
20534;DHT22;12929;56.822;26.056;2024-03-22T09:13:01;3.60;99.90
20534;DHT22;12929;56.822;26.056;2024-03-22T09:15:28;3.60;99.90
20534;DHT22;12929;56.822;26.056;2024-03-22T09:17:54;3.60;99.90
20534;DHT22;12929;56.822;26.056;2024-03-22T09:20:21;3.60;99.90
20534;DHT22;12929;56.822;26.056;2024-03-22T09:22:47;3.60;99.90
20534;DHT22;12929;56.822;26.056;2024-03-22T09:25:14;3.60;99.90
20534;DHT22;12929;56.822;26.056;2024-03-22T09:27:40;3.60;99.90
20534;DHT22;12929;56.822;26.056;2024-03-22T09:30:08;3.60;99.90
20534;DHT22;12929;56.822;26.056;2024-03-22T09:32:36;3.60;99.90
20534;DHT22;12929;56.822;26.056;2024-03-22T09:35:02;3.60;99.90
20534;DHT22;12929;56.822;26.056;2024-03-22T09:37:29;3.70;99.90
20534;DHT22;12929;56.822;26.056;2024-03-22T09:39:55;3.70;99.90
20534;DHT22;12929;56.822;26.056;2024-03-22T09:42:23;3.70;99.90
20534;DHT22;12929;56.822;26.056;2024-03-22T09:44:51;3.70;99.90
20534;DHT22;12929;56.822;26.056;2024-03-22T09:47:18;3.80;99.90
20534;DHT22;12929;56.822;26.056;2024-03-22T09:49:47;3.80;99.90
20534;DHT22;12929;56.822;26.056;2024-03-22T09:52:16;3.80;99.90
20534;DHT22;12929;56.822;26.056;2024-03-22T09:54:45;3.80;99.90
20534;DHT22;12929;56.822;26.056;2024-03-22T09:57:14;3.80;99.90
20534;DHT22;12929;56.822;26.056;2024-03-22T09:59:44;3.90;99.90
20534;DHT22;12929;56.822;26.056;2024-03-22T10:02:13;3.90;99.90
20534;DHT22;12929;56.822;26.056;2024-03-22T10:04:40;3.90;99.90
20534;DHT22;12929;56.822;26.056;2024-03-22T10:07:07;4.00;99.90
20534;DHT22;12929;56.822;26.056;2024-03-22T10:09:38;4.00;99.90
20534;DHT22;12929;56.822;26.056;2024-03-22T10:12:04;4.00;99.90
20534;DHT22;12929;56.822;26.056;2024-03-22T10:14:31;3.90;99.90
20534;DHT22;12929;56.822;26.056;2024-03-22T10:16:59;3.90;99.90
20534;DHT22;12929;56.822;26.056;2024-03-22T10:19:26;3.90;99.90
20534;DHT22;12929;56.822;26.056;2024-03-22T10:22:05;3.90;99.90
20534;DHT22;12929;56.822;26.056;2024-03-22T10:24:34;3.90;99.90
20534;DHT22;12929;56.822;26.056;2024-03-22T10:27:00;3.90;99.90
20534;DHT22;12929;56.822;26.056;2024-03-22T10:29:27;4.00;99.90
20534;DHT22;12929;56.822;26.056;2024-03-22T10:31:55;4.00;99.90
20534;DHT22;12929;56.822;26.056;2024-03-22T10:34:22;4.00;99.90
20534;DHT22;12929;56.822;26.056;2024-03-22T10:36:49;4.00;99.90
20534;DHT22;12929;56.822;26.056;2024-03-22T10:39:19;4.00;99.90
20534;DHT22;12929;56.822;26.056;2024-03-22T10:41:46;4.10;99.90
20534;DHT22;12929;56.822;26.056;2024-03-22T10:44:14;4.00;99.90
20534;DHT22;12929;56.822;26.056;2024-03-22T10:46:45;4.00;99.90
20534;DHT22;12929;56.822;26.056;2024-03-22T10:49:17;4.10;99.90
20534;DHT22;12929;56.822;26.056;2024-03-22T10:51:48;4.10;99.90
20534;DHT22;12929;56.822;26.056;2024-03-22T10:54:20;4.20;99.90
20534;DHT22;12929;56.822;26.056;2024-03-22T10:56:49;4.20;99.90
20534;DHT22;12929;56.822;26.056;2024-03-22T10:59:22;4.20;99.90
20534;DHT22;12929;56.822;26.056;2024-03-22T11:01:49;4.20;99.90
20534;DHT22;12929;56.822;26.056;2024-03-22T11:04:22;4.20;99.90
20534;DHT22;12929;56.822;26.056;2024-03-22T11:06:50;4.10;99.90
20534;DHT22;12929;56.822;26.056;2024-03-22T11:09:27;4.20;99.90
20534;DHT22;12929;56.822;26.056;2024-03-22T11:11:55;4.20;99.90
20534;DHT22;12929;56.822;26.056;2024-03-22T11:14:22;4.20;99.90
20534;DHT22;12929;56.822;26.056;2024-03-22T11:16:52;4.20;99.90
20534;DHT22;12929;56.822;26.056;2024-03-22T11:19:19;4.20;99.90
20534;DHT22;12929;56.822;26.056;2024-03-22T11:21:45;4.20;99.90
20534;DHT22;12929;56.822;26.056;2024-03-22T11:24:12;4.20;99.90
20534;DHT22;12929;56.822;26.056;2024-03-22T11:26:38;4.20;99.90
20534;DHT22;12929;56.822;26.056;2024-03-22T11:29:05;4.20;99.90
20534;DHT22;12929;56.822;26.056;2024-03-22T11:31:32;4.20;99.90
20534;DHT22;12929;56.822;26.056;2024-03-22T11:33:58;4.20;99.90
20534;DHT22;12929;56.822;26.056;2024-03-22T11:36:26;4.20;99.90
20534;DHT22;12929;56.822;26.056;2024-03-22T11:38:53;4.20;99.90
20534;DHT22;12929;56.822;26.056;2024-03-22T11:41:25;4.20;99.90
20534;DHT22;12929;56.822;26.056;2024-03-22T11:43:52;4.20;99.90
20534;DHT22;12929;56.822;26.056;2024-03-22T11:46:19;4.20;99.90
20534;DHT22;12929;56.822;26.056;2024-03-22T11:48:54;4.20;99.90
20534;DHT22;12929;56.822;26.056;2024-03-22T11:51:22;4.30;99.90
20534;DHT22;12929;56.822;26.056;2024-03-22T11:53:52;4.20;99.90
20534;DHT22;12929;56.822;26.056;2024-03-22T11:56:20;4.30;99.90
20534;DHT22;12929;56.822;26.056;2024-03-22T11:58:47;4.30;99.90
20534;DHT22;12929;56.822;26.056;2024-03-22T12:01:18;4.30;99.90
20534;DHT22;12929;56.822;26.056;2024-03-22T12:03:49;4.30;99.90
20534;DHT22;12929;56.822;26.056;2024-03-22T12:06:16;4.30;99.90
20534;DHT22;12929;56.822;26.056;2024-03-22T12:08:42;4.30;99.90
20534;DHT22;12929;56.822;26.056;2024-03-22T12:11:10;4.40;99.90
20534;DHT22;12929;56.822;26.056;2024-03-22T12:13:40;4.40;99.90
20534;DHT22;12929;56.822;26.056;2024-03-22T12:16:06;4.30;99.90
20534;DHT22;12929;56.822;26.056;2024-03-22T12:18:36;4.30;99.90
20534;DHT22;12929;56.822;26.056;2024-03-22T12:21:02;4.40;99.90
20534;DHT22;12929;56.822;26.056;2024-03-22T12:23:29;4.40;99.90
20534;DHT22;12929;56.822;26.056;2024-03-22T12:25:55;4.30;99.90
20534;DHT22;12929;56.822;26.056;2024-03-22T12:28:22;4.30;99.90
20534;DHT22;12929;56.822;26.056;2024-03-22T12:30:50;4.30;99.90
20534;DHT22;12929;56.822;26.056;2024-03-22T12:33:16;4.30;99.90
20534;DHT22;12929;56.822;26.056;2024-03-22T12:35:44;4.30;99.90
20534;DHT22;12929;56.822;26.056;2024-03-22T12:38:11;4.20;99.90
20534;DHT22;12929;56.822;26.056;2024-03-22T12:40:40;4.20;99.90
20534;DHT22;12929;56.822;26.056;2024-03-22T12:43:09;4.20;99.90
20534;DHT22;12929;56.822;26.056;2024-03-22T12:45:37;4.20;99.90
20534;DHT22;12929;56.822;26.056;2024-03-22T12:48:04;4.20;99.90
20534;DHT22;12929;56.822;26.056;2024-03-22T12:50:31;4.20;99.90
20534;DHT22;12929;56.822;26.056;2024-03-22T12:52:57;4.20;99.90
20534;DHT22;12929;56.822;26.056;2024-03-22T12:55:24;4.20;99.90
20534;DHT22;12929;56.822;26.056;2024-03-22T12:57:52;4.30;99.90
20534;DHT22;12929;56.822;26.056;2024-03-22T13:00:18;4.20;99.90
20534;DHT22;12929;56.822;26.056;2024-03-22T13:02:45;4.30;99.90
20534;DHT22;12929;56.822;26.056;2024-03-22T13:05:12;4.20;99.90
20534;DHT22;12929;56.822;26.056;2024-03-22T13:07:39;4.30;99.90
20534;DHT22;12929;56.822;26.056;2024-03-22T13:10:06;4.30;99.90
20534;DHT22;12929;56.822;26.056;2024-03-22T13:12:33;4.30;99.90
20534;DHT22;12929;56.822;26.056;2024-03-22T13:15:03;4.30;99.90
20534;DHT22;12929;56.822;26.056;2024-03-22T13:17:31;4.30;99.90
20534;DHT22;12929;56.822;26.056;2024-03-22T13:19:59;4.30;99.90
20534;DHT22;12929;56.822;26.056;2024-03-22T13:22:26;4.30;99.90
20534;DHT22;12929;56.822;26.056;2024-03-22T13:24:52;4.30;99.90
20534;DHT22;12929;56.822;26.056;2024-03-22T13:27:19;4.40;99.90
20534;DHT22;12929;56.822;26.056;2024-03-22T13:29:48;4.40;99.90
20534;DHT22;12929;56.822;26.056;2024-03-22T13:32:15;4.40;99.90
20534;DHT22;12929;56.822;26.056;2024-03-22T13:34:41;4.50;99.90
20534;DHT22;12929;56.822;26.056;2024-03-22T13:37:09;4.40;99.90
20534;DHT22;12929;56.822;26.056;2024-03-22T13:39:36;4.40;99.90
20534;DHT22;12929;56.822;26.056;2024-03-22T13:42:02;4.40;99.90
20534;DHT22;12929;56.822;26.056;2024-03-22T13:44:29;4.40;99.90
20534;DHT22;12929;56.822;26.056;2024-03-22T13:46:58;4.40;99.90
20534;DHT22;12929;56.822;26.056;2024-03-22T13:49:24;4.40;99.90
20534;DHT22;12929;56.822;26.056;2024-03-22T13:51:51;4.40;99.90
20534;DHT22;12929;56.822;26.056;2024-03-22T13:54:17;4.40;99.90
20534;DHT22;12929;56.822;26.056;2024-03-22T13:56:46;4.50;99.90
20534;DHT22;12929;56.822;26.056;2024-03-22T13:59:14;4.50;99.90
20534;DHT22;12929;56.822;26.056;2024-03-22T14:01:42;4.40;99.90
20534;DHT22;12929;56.822;26.056;2024-03-22T14:04:12;4.40;99.90
20534;DHT22;12929;56.822;26.056;2024-03-22T14:06:38;4.40;99.90
20534;DHT22;12929;56.822;26.056;2024-03-22T14:09:06;4.40;99.90
20534;DHT22;12929;56.822;26.056;2024-03-22T14:11:36;4.30;99.90
20534;DHT22;12929;56.822;26.056;2024-03-22T14:14:02;4.30;99.90
20534;DHT22;12929;56.822;26.056;2024-03-22T14:16:31;4.30;99.90
20534;DHT22;12929;56.822;26.056;2024-03-22T14:18:57;4.30;99.90
20534;DHT22;12929;56.822;26.056;2024-03-22T14:21:23;4.30;99.90
20534;DHT22;12929;56.822;26.056;2024-03-22T14:23:50;4.30;99.90
20534;DHT22;12929;56.822;26.056;2024-03-22T14:26:18;4.30;99.90
20534;DHT22;12929;56.822;26.056;2024-03-22T14:28:45;4.30;99.90
20534;DHT22;12929;56.822;26.056;2024-03-22T14:31:13;4.30;99.90
20534;DHT22;12929;56.822;26.056;2024-03-22T14:33:40;4.30;99.90
20534;DHT22;12929;56.822;26.056;2024-03-22T14:36:07;4.30;99.90
20534;DHT22;12929;56.822;26.056;2024-03-22T14:38:35;4.30;99.90
20534;DHT22;12929;56.822;26.056;2024-03-22T14:41:02;4.30;99.90
20534;DHT22;12929;56.822;26.056;2024-03-22T14:43:29;4.30;99.90
20534;DHT22;12929;56.822;26.056;2024-03-22T14:46:01;4.30;99.90
20534;DHT22;12929;56.822;26.056;2024-03-22T14:48:31;4.30;99.90
20534;DHT22;12929;56.822;26.056;2024-03-22T14:50:57;4.30;99.90
20534;DHT22;12929;56.822;26.056;2024-03-22T14:53:24;4.30;99.90
20534;DHT22;12929;56.822;26.056;2024-03-22T14:55:55;4.20;99.90
20534;DHT22;12929;56.822;26.056;2024-03-22T14:58:25;4.30;99.90
20534;DHT22;12929;56.822;26.056;2024-03-22T15:00:58;4.30;99.90
20534;DHT22;12929;56.822;26.056;2024-03-22T15:03:25;4.20;99.90
20534;DHT22;12929;56.822;26.056;2024-03-22T15:05:56;4.20;99.90
20534;DHT22;12929;56.822;26.056;2024-03-22T15:08:23;4.20;99.90
20534;DHT22;12929;56.822;26.056;2024-03-22T15:10:49;4.20;99.90
20534;DHT22;12929;56.822;26.056;2024-03-22T15:13:17;4.10;99.90
20534;DHT22;12929;56.822;26.056;2024-03-22T15:15:55;4.10;99.90
20534;DHT22;12929;56.822;26.056;2024-03-22T15:18:22;4.10;99.90
20534;DHT22;12929;56.822;26.056;2024-03-22T15:20:48;4.10;99.90
20534;DHT22;12929;56.822;26.056;2024-03-22T15:23:16;4.20;99.90
20534;DHT22;12929;56.822;26.056;2024-03-22T15:25:42;4.10;99.90
20534;DHT22;12929;56.822;26.056;2024-03-22T15:28:09;4.10;99.90
20534;DHT22;12929;56.822;26.056;2024-03-22T15:30:37;4.10;99.90